Time;durP1;ratioP1;P1;durP2;ratioP2;P2;SDS_P1;SDS_P2;PMS_P1;PMS_P2;Temp;Humidity;BMP_temperature;BMP_pressure;BME280_temperature;BME280_humidity;BME280_pressure;Samples;Min_cycle;Max_cycle;Signal;HPM_P1;HPM_P2
2022/05/03 00:02:47;;;;;;;8.30;7.03;;;17.00;93.70;;;17.25;47.07;101288.38;4919021;28;103993;-64
2022/05/03 00:05:29;;;;;;;4.07;3.67;;;16.90;93.80;;;17.27;47.23;101287.44;4937528;28;99755;-64
2022/05/03 00:08:41;;;;;;;8.07;7.33;;;16.90;94.10;;;17.27;46.90;101285.63;4921909;28;99227;-64
2022/05/03 00:11:20;;;;;;;3.70;3.40;;;16.90;93.40;;;17.23;46.97;101286.75;4941053;28;99514;-64
2022/05/03 00:14:01;;;;;;;5.33;4.70;;;16.80;94.20;;;17.28;47.00;101283.84;4922560;28;96942;-64
2022/05/03 00:16:27;;;;;;;13.67;12.23;;;16.90;93.80;;;17.24;46.46;101284.00;4941871;28;98040;-69
2022/05/03 00:18:54;;;;;;;10.73;8.60;;;16.80;93.30;;;17.25;47.19;101290.19;4942087;28;98395;-64
2022/05/03 00:21:21;;;;;;;12.90;11.60;;;16.90;93.80;;;17.23;47.19;101287.63;4908429;28;97616;-64
2022/05/03 00:23:47;;;;;;;5.33;4.83;;;16.80;93.50;;;17.18;47.13;101286.97;4941296;28;106364;-64
2022/05/03 00:26:14;;;;;;;13.77;9.07;;;16.70;93.60;;;17.14;47.29;101280.09;4958089;28;97499;-64
2022/05/03 00:28:42;;;;;;;12.33;11.20;;;16.70;94.00;;;17.10;47.32;101278.53;4953959;28;111237;-64
2022/05/03 00:31:10;;;;;;;7.27;6.57;;;16.60;93.90;;;17.05;47.62;101272.56;4957349;28;97054;-64
2022/05/03 00:33:36;;;;;;;5.23;4.73;;;16.50;94.30;;;17.06;47.67;101284.09;4954047;28;98006;-64
2022/05/03 00:36:02;;;;;;;11.03;9.30;;;16.60;94.50;;;17.05;47.79;101277.03;4955623;28;114887;-64
2022/05/03 00:38:34;;;;;;;6.07;5.57;;;16.60;94.30;;;17.04;47.62;101270.00;4934442;28;96597;-68
2022/05/03 00:41:02;;;;;;;4.90;4.50;;;16.50;94.20;;;17.06;47.49;101276.97;4957793;28;97081;-64
2022/05/03 00:44:03;;;;;;;4.27;3.87;;;16.60;94.20;;;17.11;47.52;101271.41;4929349;28;99076;-70
2022/05/03 00:46:37;;;;;;;4.03;3.67;;;16.70;94.40;;;17.11;47.61;101266.94;4935593;28;97218;-65
2022/05/03 00:49:30;;;;;;;4.63;4.23;;;16.70;94.10;;;17.17;47.21;101266.59;4927968;28;111028;-64
2022/05/03 00:52:09;;;;;;;6.70;6.10;;;16.80;93.80;;;17.18;47.25;101267.44;4932980;28;97071;-64
2022/05/03 00:55:15;;;;;;;12.93;11.73;;;16.80;93.80;;;17.19;47.18;101269.19;4936124;28;98126;-64
2022/05/03 00:58:08;;;;;;;4.43;4.03;;;16.80;93.80;;;17.21;47.19;101275.28;4954365;28;98331;-64
2022/05/03 01:00:35;;;;;;;6.47;5.83;;;16.90;93.90;;;17.21;47.32;101283.28;4937386;28;97391;-65
2022/05/03 01:03:15;;;;;;;7.73;7.03;;;16.80;93.60;;;17.21;47.24;101272.63;4954471;28;97226;-64
2022/05/03 01:06:17;;;;;;;4.10;3.80;;;16.80;93.70;;;17.20;47.05;101274.41;4939181;28;97372;-64
2022/05/03 01:09:05;;;;;;;12.17;10.90;;;16.70;94.00;;;17.18;46.99;101273.66;4935265;28;97301;-64
2022/05/03 01:12:00;;;;;;;7.17;6.47;;;16.70;93.60;;;17.17;47.37;101271.94;4953829;28;96650;-65
2022/05/03 01:14:35;;;;;;;5.67;5.17;;;16.80;94.00;;;17.18;47.08;101270.13;4957481;28;96885;-64
2022/05/03 01:17:21;;;;;;;4.67;4.27;;;16.80;93.70;;;17.17;47.17;101263.06;4951601;28;101542;-64
2022/05/03 01:20:05;;;;;;;7.07;6.33;;;16.70;93.90;;;17.16;47.15;101272.00;4953676;28;96949;-64
2022/05/03 01:22:52;;;;;;;5.43;4.93;;;16.70;93.80;;;17.14;47.20;101265.91;4954243;28;97263;-65
2022/05/03 01:25:44;;;;;;;5.27;4.77;;;16.70;93.90;;;17.10;47.20;101259.03;4955482;28;97165;-64
2022/05/03 01:28:31;;;;;;;4.73;4.33;;;16.60;94.20;;;17.07;47.26;101259.16;4931442;28;100622;-64
2022/05/03 01:31:10;;;;;;;16.27;11.20;;;16.60;94.20;;;16.98;46.82;101259.66;4929130;28;101193;-64
2022/05/03 01:33:43;;;;;;;6.17;5.60;;;16.40;93.80;;;16.95;47.85;101260.69;4930141;28;97056;-64
2022/05/03 01:36:10;;;;;;;4.50;4.10;;;16.40;94.70;;;16.96;47.75;101262.41;4934620;28;97511;-64
2022/05/03 01:38:47;;;;;;;14.23;12.17;;;16.50;94.60;;;16.93;47.68;101263.44;4951307;28;97971;-64
2022/05/03 01:41:43;;;;;;;5.93;5.43;;;16.40;94.20;;;16.94;47.64;101262.50;4957023;28;98880;-63
2022/05/03 01:44:27;;;;;;;10.10;9.00;;;16.40;94.50;;;16.94;47.71;101257.19;4933993;28;97241;-63
2022/05/03 01:47:13;;;;;;;8.83;7.97;;;16.50;94.20;;;16.91;47.68;101254.66;4959861;28;97650;-64
2022/05/03 01:50:19;;;;;;;4.00;3.70;;;16.40;94.50;;;16.96;47.83;101254.44;4950442;28;97391;-64
2022/05/03 01:53:11;;;;;;;14.07;12.67;;;16.50;94.70;;;16.97;47.65;101252.63;4937746;28;97035;-64
2022/05/03 01:56:03;;;;;;;11.43;10.23;;;16.50;94.10;;;16.99;47.78;101256.06;4948325;28;101503;-64
2022/05/03 01:59:05;;;;;;;10.20;9.07;;;16.60;94.70;;;17.07;47.46;101260.06;4931874;28;96976;-65
2022/05/03 02:01:50;;;;;;;13.40;11.10;;;16.80;93.90;;;17.08;47.33;101261.78;4905969;28;101808;-65
2022/05/03 02:04:35;;;;;;;8.83;7.93;;;16.70;93.50;;;17.09;47.54;101268.81;4940461;28;97190;-64
2022/05/03 02:07:35;;;;;;;13.57;11.97;;;16.70;94.00;;;17.00;47.59;101268.44;4918903;28;98731;-64
2022/05/03 02:10:07;;;;;;;4.37;3.97;;;16.60;94.10;;;16.97;47.93;101263.28;4937343;28;97024;-64
2022/05/03 02:12:33;;;;;;;7.57;6.87;;;16.50;94.50;;;16.93;47.65;101263.44;4947126;28;98075;-65
2022/05/03 02:15:11;;;;;;;14.17;10.10;;;16.40;94.30;;;16.93;47.98;101262.59;4941503;28;96982;-64
2022/05/03 02:18:05;;;;;;;3.90;3.60;;;16.40;94.50;;;16.94;47.70;101259.84;4943060;28;96855;-65
2022/05/03 02:21:09;;;;;;;6.70;5.67;;;16.40;94.70;;;16.94;48.00;101254.50;4899644;28;96932;-64
2022/05/03 02:24:03;;;;;;;10.50;9.30;;;16.50;94.50;;;16.93;47.88;101258.13;4951261;28;97702;-64
2022/05/03 02:26:58;;;;;;;8.40;7.60;;;16.40;94.30;;;16.89;47.87;101256.53;4942189;28;97378;-66
2022/05/03 02:29:35;;;;;;;9.07;7.50;;;16.30;94.40;;;16.88;48.13;101253.94;4928284;28;97139;-65
2022/05/03 02:32:11;;;;;;;4.13;3.73;;;16.30;94.80;;;16.91;48.08;101254.66;4892155;28;98453;-64
2022/05/03 02:34:54;;;;;;;3.80;3.50;;;16.40;94.90;;;16.95;47.84;101260.69;4935811;28;97486;-64
2022/05/03 02:37:37;;;;;;;5.07;4.57;;;16.50;94.50;;;16.97;48.02;101252.63;4935447;28;97029;-64
2022/05/03 02:40:11;;;;;;;4.73;4.37;;;16.50;94.40;;;16.97;47.87;101258.81;4928534;28;97079;-64
2022/05/03 02:42:37;;;;;;;3.90;3.60;;;16.50;94.50;;;16.99;47.69;101258.72;4951044;28;99030;-64
2022/05/03 02:45:06;;;;;;;4.27;3.93;;;16.50;94.50;;;17.02;47.51;101258.56;4956688;28;97746;-65
2022/05/03 02:48:06;;;;;;;4.80;4.33;;;16.60;94.40;;;17.07;47.42;101259.16;4926310;28;99223;-67
2022/05/03 02:51:13;;;;;;;4.37;4.00;;;16.60;94.20;;;17.05;47.43;101250.38;4931082;28;98573;-65
2022/05/03 02:53:55;;;;;;;3.87;3.57;;;16.60;94.00;;;17.03;47.46;101246.94;4886002;28;97317;-65
2022/05/03 02:56:49;;;;;;;7.43;6.70;;;16.60;94.20;;;17.01;47.59;101259.50;4957622;28;98719;-64
2022/05/03 03:03:10;;;;;;;8.60;7.57;;;16.50;94.40;;;16.90;47.87;101255.59;4926079;28;97370;-64
2022/05/03 03:05:41;;;;;;;12.83;9.43;;;16.40;94.40;;;16.81;47.77;101264.09;4942123;28;96639;-64
2022/05/03 03:08:12;;;;;;;4.53;4.13;;;16.30;94.50;;;16.77;48.35;101251.84;4952859;28;98120;-64
2022/05/03 03:10:40;;;;;;;6.37;5.73;;;16.20;95.10;;;16.78;48.08;101264.25;4937036;28;97200;-65
2022/05/03 03:13:30;;;;;;;4.50;4.07;;;16.20;94.80;;;16.79;48.02;101252.66;4947036;28;97403;-64
2022/05/03 03:15:56;;;;;;;5.13;4.47;;;16.30;94.80;;;16.80;47.99;101246.38;4954593;28;97563;-64
2022/05/03 03:18:24;;;;;;;4.57;4.17;;;16.30;94.40;;;16.79;48.10;101255.31;4940334;28;110452;-64
2022/05/03 03:20:56;;;;;;;4.07;3.77;;;16.30;94.20;;;16.75;48.25;101248.41;4934290;28;97240;-64
2022/05/03 03:23:29;;;;;;;5.17;4.67;;;16.20;94.90;;;16.73;48.32;101250.28;4954833;28;97301;-64
2022/05/03 03:25:55;;;;;;;11.73;9.70;;;16.20;94.70;;;16.70;47.93;101265.56;4950632;28;97248;-64
2022/05/03 03:28:22;;;;;;;3.87;3.40;;;16.10;94.50;;;16.68;48.20;101257.66;4963281;28;99113;-64
2022/05/03 03:30:52;;;;;;;8.97;8.10;;;16.10;95.20;;;16.68;48.30;101255.00;4953536;28;97840;-64
2022/05/03 03:33:22;;;;;;;4.83;4.43;;;16.10;94.50;;;16.69;48.17;101259.38;4941806;28;96614;-64
2022/05/03 03:35:50;;;;;;;7.87;7.07;;;16.10;94.60;;;16.70;48.26;101250.44;4966411;28;98055;-64
2022/05/03 03:38:16;;;;;;;8.40;7.63;;;16.20;94.60;;;16.71;48.10;101253.97;4923623;28;126224;-64
2022/05/03 03:40:45;;;;;;;9.97;8.90;;;16.20;94.20;;;16.69;48.08;101258.53;4955601;28;97261;-64
2022/05/03 03:43:13;;;;;;;6.50;5.70;;;16.10;94.20;;;16.66;48.22;101256.84;4944184;28;97024;-64
2022/05/03 03:45:39;;;;;;;5.10;4.70;;;16.10;94.60;;;16.65;48.53;101260.47;4925436;28;96886;-64
2022/05/03 03:48:06;;;;;;;6.93;6.13;;;16.10;94.80;;;16.63;48.62;101254.31;4943112;28;97162;-64
2022/05/03 03:50:33;;;;;;;7.93;7.17;;;16.00;94.80;;;16.63;48.71;101254.31;4934198;28;99266;-64
2022/05/03 03:53:00;;;;;;;12.73;10.20;;;16.00;94.70;;;16.58;48.34;101261.69;4965793;28;97283;-64
2022/05/03 03:55:26;;;;;;;5.40;4.60;;;15.90;94.70;;;16.58;48.62;101259.03;4951573;28;97450;-64
2022/05/03 03:57:52;;;;;;;4.20;3.70;;;15.90;95.80;;;16.59;48.84;101266.06;4923245;28;113441;-64
2022/05/03 04:00:20;;;;;;;4.07;3.57;;;16.00;94.90;;;16.61;48.44;101261.53;4953047;28;121163;-64
2022/05/03 04:02:51;;;;;;;5.27;4.77;;;16.00;95.20;;;16.65;48.43;101263.13;4891906;28;96845;-64
2022/05/03 04:05:22;;;;;;;4.87;4.40;;;16.10;94.70;;;16.65;48.41;101269.31;4930847;28;97233;-64
2022/05/03 04:07:50;;;;;;;5.93;5.10;;;16.10;94.80;;;16.68;48.33;101267.47;4932918;28;98648;-64
2022/05/03 04:10:16;;;;;;;4.03;3.63;;;16.20;94.80;;;16.68;48.55;101270.97;4935204;28;97017;-64
2022/05/03 04:12:42;;;;;;;4.20;3.43;;;16.20;94.80;;;16.71;48.44;101269.94;4948976;28;97488;-64
2022/05/03 04:15:09;;;;;;;3.87;3.50;;;16.20;95.00;;;16.74;48.29;101267.13;4934209;28;99536;-64
2022/05/03 04:17:35;;;;;;;5.60;5.07;;;16.20;94.70;;;16.74;48.29;101272.44;4942527;28;97884;-64
2022/05/03 04:20:01;;;;;;;5.53;4.27;;;16.20;94.40;;;16.74;48.09;101273.31;4957268;28;97825;-64
2022/05/03 04:22:33;;;;;;;3.77;3.47;;;16.20;94.20;;;16.73;48.02;101270.72;4958000;28;97316;-64
2022/05/03 04:25:00;;;;;;;4.90;4.50;;;16.20;94.50;;;16.70;48.23;101266.44;4952969;28;97248;-64
2022/05/03 04:27:27;;;;;;;3.97;3.57;;;16.10;94.50;;;16.70;48.19;101271.75;4938470;28;97525;-64
2022/05/03 04:29:54;;;;;;;6.40;5.67;;;16.10;94.80;;;16.69;48.38;101274.50;4954038;28;99793;-64
2022/05/03 04:32:20;;;;;;;9.43;7.33;;;16.10;94.50;;;16.64;48.41;101272.06;4935210;28;97259;-64
2022/05/03 04:34:46;;;;;;;10.33;8.83;;;16.00;94.50;;;16.64;48.25;101278.25;4928894;28;96904;-64
2022/05/03 04:37:13;;;;;;;9.03;7.70;;;16.10;95.40;;;16.65;48.32;101289.75;4942053;28;126905;-64
2022/05/03 04:39:39;;;;;;;6.40;5.80;;;16.10;95.20;;;16.63;48.38;101281.81;4944620;28;97049;-64
2022/05/03 04:42:06;;;;;;;11.43;9.47;;;16.10;94.60;;;16.59;48.31;101287.38;4953551;28;97421;-64
2022/05/03 04:44:32;;;;;;;11.97;9.97;;;16.00;94.20;;;16.47;47.35;101288.84;4953552;28;97001;-64
2022/05/03 04:46:58;;;;;;;4.00;3.60;;;15.80;94.20;;;16.49;48.81;101294.09;4951360;28;112643;-65
2022/05/03 04:49:23;;;;;;;5.70;5.20;;;15.90;95.80;;;16.47;48.87;101293.31;4936971;28;97325;-64
2022/05/03 04:51:49;;;;;;;9.47;7.77;;;15.90;94.50;;;16.44;48.71;101293.47;4951412;28;98681;-64
2022/05/03 04:54:15;;;;;;;7.73;6.57;;;15.80;95.10;;;16.47;48.80;101301.31;4953139;28;96936;-64
2022/05/03 04:56:54;;;;;;;7.73;6.63;;;15.90;95.90;;;16.55;48.71;101304.47;4969893;28;97639;-64
2022/05/03 04:59:20;;;;;;;8.40;7.13;;;16.10;95.40;;;16.61;48.49;101305.00;4967416;28;96998;-64
2022/05/03 05:01:45;;;;;;;7.87;6.10;;;16.20;95.20;;;16.72;48.02;101301.84;4951404;28;102060;-64
2022/05/03 05:04:11;;;;;;;6.17;5.27;;;16.40;94.90;;;16.80;47.85;101302.31;4944512;28;97607;-64
2022/05/03 05:06:37;;;;;;;4.37;3.90;;;16.60;93.50;;;16.86;47.63;101303.78;4954504;28;97412;-64
2022/05/03 05:09:03;;;;;;;8.03;6.03;;;16.60;93.80;;;16.86;47.55;101304.66;4951604;28;96949;-64
2022/05/03 05:11:28;;;;;;;4.77;4.23;;;16.50;93.40;;;16.85;47.83;101308.28;4935106;28;98992;-67
2022/05/03 05:13:54;;;;;;;6.93;5.20;;;16.50;93.50;;;16.80;47.98;101310.31;4951159;28;99702;-64
2022/05/03 05:16:20;;;;;;;10.03;8.23;;;16.30;93.60;;;16.80;47.94;101306.78;4951797;28;114978;-64
2022/05/03 05:18:46;;;;;;;8.13;6.77;;;16.30;93.90;;;16.80;47.70;101307.66;4944408;28;97213;-64
2022/05/03 05:21:14;;;;;;;9.73;8.27;;;16.30;93.90;;;16.76;47.64;101314.06;4959676;28;100507;-64
2022/05/03 05:23:40;;;;;;;10.97;8.23;;;16.30;93.20;;;16.73;47.45;101305.38;4917943;28;97224;-64
2022/05/03 05:26:06;;;;;;;10.93;7.07;;;16.20;93.50;;;16.63;47.90;101310.25;4954082;28;97445;-64
2022/05/03 05:28:31;;;;;;;11.23;8.43;;;16.00;93.80;;;16.57;47.40;101313.25;4940623;28;97318;-64
2022/05/03 05:30:57;;;;;;;15.10;9.67;;;15.90;93.60;;;16.53;48.20;101311.69;4937690;28;125298;-64
2022/05/03 05:33:23;;;;;;;11.30;7.50;;;15.90;94.50;;;16.58;48.44;101312.28;4936240;28;114528;-64
2022/05/03 05:35:50;;;;;;;11.97;8.83;;;16.00;95.40;;;16.64;47.89;101320.00;4949894;28;97172;-64
2022/05/03 05:38:17;;;;;;;12.30;10.63;;;16.30;93.90;;;16.68;47.19;101318.06;4940627;28;97776;-64
2022/05/03 05:40:47;;;;;;;10.33;8.47;;;16.30;92.90;;;16.71;47.43;101315.25;4913602;28;97263;-64
2022/05/03 05:43:14;;;;;;;9.50;8.03;;;16.30;93.20;;;16.71;47.92;101320.56;4933131;28;97547;-64
2022/05/03 05:45:40;;;;;;;10.20;8.73;;;16.20;94.40;;;16.73;47.74;101314.22;4936811;28;97055;-64
2022/05/03 05:48:08;;;;;;;9.40;8.40;;;16.30;94.00;;;16.77;47.77;101312.25;4957247;28;97246;-64
2022/05/03 05:50:35;;;;;;;11.37;7.43;;;16.40;94.40;;;16.86;47.61;101315.31;4941408;28;96757;-64
2022/05/03 05:55:45;;;;;;;11.93;8.57;;;16.80;94.00;;;17.02;46.84;101315.38;4946006;28;97146;-64
2022/05/03 05:58:11;;;;;;;10.47;8.90;;;16.90;92.70;;;17.04;46.64;101325.97;4954990;28;96866;-64
2022/05/03 06:00:37;;;;;;;16.40;9.43;;;16.80;92.50;;;17.02;46.65;101317.19;4946596;28;97295;-64
2022/05/03 06:03:03;;;;;;;10.00;8.73;;;16.70;92.80;;;17.06;46.87;101321.41;4940843;28;97013;-64
2022/05/03 06:05:31;;;;;;;11.43;9.60;;;16.80;93.80;;;17.09;46.33;101311.47;4939038;28;97753;-68
2022/05/03 06:07:56;;;;;;;11.50;8.90;;;16.90;92.50;;;17.12;46.79;101321.97;4954462;28;97536;-64
2022/05/03 06:10:23;;;;;;;9.63;7.37;;;16.90;93.20;;;17.17;46.12;101327.91;4935096;28;96938;-64
2022/05/03 06:12:50;;;;;;;10.43;8.47;;;17.10;93.20;;;17.18;44.14;101320.78;4934761;28;97062;-64
2022/05/03 06:15:16;;;;;;;9.53;7.87;;;17.10;91.10;;;17.22;46.03;101328.56;4938183;28;97900;-64
2022/05/03 06:17:43;;;;;;;9.73;7.97;;;17.10;91.90;;;17.23;46.36;101318.75;4945739;28;97359;-64
2022/05/03 06:20:10;;;;;;;9.50;6.47;;;17.10;92.90;;;17.23;45.55;101334.75;4959744;28;96817;-64
2022/05/03 06:22:36;;;;;;;9.50;8.50;;;17.20;92.40;;;17.25;46.10;101327.53;4942887;28;96904;-64
2022/05/03 06:25:03;;;;;;;10.80;7.93;;;17.20;92.70;;;17.28;45.92;101335.34;4916735;28;97176;-64
2022/05/03 06:27:29;;;;;;;9.43;8.43;;;17.20;92.50;;;17.26;45.50;101339.91;4941395;28;98050;-67
2022/05/03 06:29:55;;;;;;;9.67;7.70;;;17.20;91.50;;;17.23;44.67;101340.94;4950632;28;99756;-64
2022/05/03 06:32:20;;;;;;;11.80;8.73;;;17.10;90.90;;;17.10;44.15;101328.31;4950841;28;97374;-64
2022/05/03 06:34:46;;;;;;;12.30;9.33;;;16.90;90.50;;;17.04;45.07;101333.97;4957642;28;115785;-64
2022/05/03 06:37:17;;;;;;;11.93;9.10;;;16.80;92.00;;;16.95;44.94;101336.19;4956283;28;113525;-64
2022/05/03 06:39:43;;;;;;;9.07;8.13;;;16.60;91.60;;;16.89;45.75;101336.47;4933819;28;97297;-64
2022/05/03 06:42:09;;;;;;;12.50;9.47;;;16.60;91.30;;;16.84;44.79;101329.66;4948167;28;97360;-64
2022/05/03 06:44:37;;;;;;;10.20;8.53;;;16.60;91.20;;;16.78;46.14;101341.50;4916900;28;98428;-64
2022/05/03 06:47:05;;;;;;;9.57;7.03;;;16.40;92.00;;;16.88;46.53;101345.41;4932330;28;97620;-64
2022/05/03 06:49:30;;;;;;;7.97;7.20;;;16.60;93.30;;;16.97;46.64;101348.56;4950021;28;97546;-65
2022/05/03 06:51:57;;;;;;;11.03;7.87;;;16.80;93.20;;;17.05;46.02;101346.34;4937364;28;99186;-64
2022/05/03 06:54:28;;;;;;;8.60;6.77;;;17.00;92.60;;;17.05;45.79;101351.66;4923532;28;97925;-64
2022/05/03 06:56:54;;;;;;;13.20;8.37;;;17.00;92.20;;;17.13;45.19;101349.47;4920410;28;101408;-64
2022/05/03 06:59:19;;;;;;;11.13;8.10;;;17.20;91.20;;;17.15;45.55;101352.94;4941815;28;97422;-63
2022/05/03 07:01:49;;;;;;;10.43;7.20;;;17.10;91.90;;;17.13;45.31;101350.34;4913224;28;96859;-64
2022/05/03 07:04:14;;;;;;;10.00;8.00;;;17.20;91.60;;;17.14;45.81;101360.06;4916513;28;98104;-64
2022/05/03 07:06:40;;;;;;;13.10;9.13;;;17.20;92.00;;;17.11;43.14;101362.03;4922393;28;97557;-64
2022/05/03 07:09:06;;;;;;;8.33;6.17;;;17.10;89.70;;;17.14;44.98;101362.72;4912740;28;106190;-64
2022/05/03 07:11:33;;;;;;;8.73;7.67;;;17.10;91.80;;;17.16;45.05;101365.31;4916617;28;105073;-65
2022/05/03 07:13:58;;;;;;;10.43;7.53;;;17.10;91.90;;;17.18;45.33;101360.75;4918647;28;130684;-64
2022/05/03 07:16:24;;;;;;;7.40;6.53;;;17.10;91.90;;;17.25;45.75;101360.38;4923201;28;97299;-64
2022/05/03 07:24:27;;;;;;;7.03;6.33;;;17.20;89.20;;;17.22;45.21;101370.34;4897746;28;97159;-65
2022/05/03 07:26:55;;;;;;;9.30;7.40;;;17.00;92.00;;;17.27;45.19;101376.28;4911295;28;106010;-65
2022/05/03 07:29:21;;;;;;;10.63;8.37;;;17.10;91.20;;;17.11;43.12;101372.69;4926764;28;97190;-65
2022/05/03 07:31:47;;;;;;;10.67;7.40;;;17.00;90.50;;;17.10;43.58;101382.50;4921183;28;97336;-64
2022/05/03 07:34:13;;;;;;;11.37;6.77;;;16.90;90.30;;;17.10;45.27;101376.31;4944232;28;101926;-65
2022/05/03 07:36:41;;;;;;;7.77;6.23;;;17.00;91.20;;;17.17;45.66;101378.56;4938692;28;99257;-64
2022/05/03 07:39:07;;;;;;;8.80;6.93;;;17.00;91.90;;;17.21;43.40;101381.91;4942392;28;98081;-64
2022/05/03 07:41:33;;;;;;;14.53;7.87;;;17.20;90.70;;;17.13;43.48;101377.00;4940966;28;97468;-64
2022/05/03 07:43:59;;;;;;;9.23;7.47;;;17.00;90.60;;;17.07;42.12;101376.44;4944490;28;97906;-65
2022/05/03 07:46:25;;;;;;;5.80;3.70;;;17.00;89.40;;;17.20;45.79;101382.88;4944738;28;98491;-65
2022/05/03 07:48:51;;;;;;;8.77;7.40;;;17.00;91.90;;;17.15;43.82;101375.13;4940597;28;97484;-65
2022/05/03 07:51:17;;;;;;;8.30;6.23;;;17.00;89.90;;;16.99;42.08;101368.00;4945235;28;106109;-65
2022/05/03 07:53:43;;;;;;;7.47;6.37;;;16.80;89.00;;;16.99;43.68;101373.31;4928606;28;98999;-64
2022/05/03 07:56:10;;;;;;;5.77;3.70;;;16.70;90.20;;;17.00;45.66;101370.56;4944347;28;113645;-65
2022/05/03 07:58:36;;;;;;;8.33;5.93;;;16.80;91.40;;;16.90;44.31;101364.84;4919962;28;98073;-64
2022/05/03 08:01:07;;;;;;;10.23;6.40;;;16.70;90.70;;;16.98;41.50;101367.13;4943294;28;97521;-64
2022/05/03 08:03:33;;;;;;;6.90;5.47;;;16.80;89.30;;;17.00;42.00;101373.25;4910544;28;98483;-64
2022/05/03 08:05:59;;;;;;;6.53;4.57;;;16.80;89.80;;;17.03;43.78;101374.88;4941151;28;96960;-64
2022/05/03 08:08:25;;;;;;;10.07;5.60;;;16.90;90.60;;;17.07;44.82;101376.44;4942479;28;98932;-63
2022/05/03 08:10:50;;;;;;;7.83;5.00;;;16.90;90.80;;;17.18;44.96;101374.94;4941994;28;98043;-64
2022/05/03 08:13:18;;;;;;;9.00;5.17;;;17.10;90.60;;;17.25;42.45;101383.50;4941570;28;101737;-65
2022/05/03 08:15:44;;;;;;;6.53;5.83;;;17.20;89.70;;;17.30;41.08;101377.94;4938267;28;107746;-64
2022/05/03 08:18:10;;;;;;;5.60;4.90;;;17.20;87.50;;;17.31;43.79;101374.31;4942915;28;97541;-64
2022/05/03 08:20:35;;;;;;;7.43;5.80;;;17.20;90.30;;;17.33;41.44;101377.75;4938053;28;96662;-64
2022/05/03 08:23:01;;;;;;;10.23;5.97;;;17.30;88.60;;;17.28;40.92;101383.34;4923172;28;98897;-64
2022/05/03 08:25:28;;;;;;;2.43;2.10;;;17.20;86.80;;;17.28;44.73;101375.34;4920896;28;97395;-64
2022/05/03 08:27:57;;;;;;;11.73;5.30;;;17.20;90.90;;;17.35;42.93;101384.72;4921619;28;96972;-64
2022/05/03 08:30:25;;;;;;;7.80;5.00;;;17.30;87.70;;;17.32;43.81;101379.56;4941587;28;97429;-64
2022/05/03 08:32:51;;;;;;;6.50;4.80;;;17.20;90.10;;;17.38;43.63;101386.41;4922917;28;97540;-64
2022/05/03 08:35:21;;;;;;;7.20;5.33;;;17.30;89.70;;;17.43;43.45;101379.88;4925321;28;97472;-64
2022/05/03 08:43:17;;;;;;;5.93;5.07;;;17.50;90.20;;;17.54;40.69;101388.19;4938938;28;98319;-64
2022/05/03 08:45:51;;;;;;;13.60;5.57;;;17.50;85.90;;;17.50;40.52;101381.28;4900736;28;100064;-65
2022/05/03 08:48:18;;;;;;;4.27;3.87;;;17.40;86.00;;;17.51;42.83;101388.34;4936650;28;97246;-64
2022/05/03 08:50:45;;;;;;;4.37;3.83;;;17.40;89.10;;;17.52;41.68;101390.06;4909501;28;98525;-65
2022/05/03 08:53:12;;;;;;;9.40;6.13;;;17.40;89.30;;;17.58;40.33;101382.66;4940757;28;97527;-64
2022/05/03 08:55:41;;;;;;;10.13;5.77;;;17.50;86.60;;;17.54;39.55;101384.66;4919692;28;99358;-65
2022/05/03 08:58:07;;;;;;;3.80;2.27;;;17.50;85.00;;;17.63;43.85;101385.94;4942576;28;99680;-65
2022/05/03 09:00:35;;;;;;;8.43;4.93;;;17.60;90.10;;;17.66;40.84;101377.81;4920018;28;97563;-65
2022/05/03 09:03:03;;;;;;;9.53;5.67;;;17.60;86.20;;;17.64;39.71;101377.00;4922321;28;97888;-65
2022/05/03 09:05:29;;;;;;;7.37;4.73;;;17.60;84.70;;;17.71;43.65;101384.63;4940394;28;98077;-67
2022/05/03 09:07:59;;;;;;;6.10;4.20;;;17.60;90.40;;;17.76;43.25;101381.69;4939718;28;97234;-65
2022/05/03 09:10:34;;;;;;;7.07;4.60;;;17.80;90.10;;;17.85;41.91;101389.22;4907275;28;97688;-65
2022/05/03 09:13:33;;;;;;;8.93;5.90;;;17.90;87.20;;;17.88;39.08;101391.72;4917519;28;104499;-65
2022/05/03 09:16:10;;;;;;;2.60;2.03;;;17.80;83.10;;;17.92;43.17;101393.25;4913880;28;101621;-65
2022/05/03 09:18:36;;;;;;;4.33;3.93;;;17.90;89.90;;;17.96;43.35;101389.50;4937768;28;97181;-65
2022/05/03 09:24:10;;;;;;;2.87;2.57;;;18.00;84.10;;;18.04;41.70;101391.75;4871074;28;100568;-65
2022/05/03 09:26:37;;;;;;;6.00;5.17;;;18.10;86.90;;;18.06;39.43;101389.84;4894730;28;100647;-65
2022/05/03 09:29:08;;;;;;;4.43;3.37;;;18.10;84.20;;;18.08;40.52;101386.16;4899239;28;97064;-65
2022/05/03 09:31:41;;;;;;;6.00;5.40;;;18.10;86.30;;;18.10;39.18;101394.09;4908980;28;97501;-65
2022/05/03 09:34:24;;;;;;;1.73;1.63;;;18.10;85.00;;;18.14;42.93;101392.97;4932278;28;98644;-65
2022/05/03 09:36:54;;;;;;;8.03;5.00;;;18.20;88.80;;;18.18;39.54;101385.63;4918244;28;96913;-65
2022/05/03 09:39:28;;;;;;;3.73;2.83;;;18.20;83.90;;;18.20;42.42;101387.28;4936945;28;97676;-65
2022/05/03 09:42:15;;;;;;;7.37;4.80;;;18.30;87.80;;;18.24;39.57;101383.50;4920718;28;98060;-65
2022/05/03 09:45:00;;;;;;;10.67;5.10;;;18.30;84.20;;;18.25;41.99;101392.38;4916577;28;96817;-65
2022/05/03 09:47:47;;;;;;;5.93;4.50;;;18.30;86.40;;;18.23;38.12;101386.25;4911734;28;99142;-65
2022/05/03 09:50:36;;;;;;;6.67;4.50;;;18.20;81.60;;;18.26;42.15;101386.09;4927931;28;99371;-65
2022/05/03 09:53:13;;;;;;;2.37;1.77;;;18.30;84.90;;;18.24;41.10;101388.84;4945301;28;97202;-65
2022/05/03 09:55:40;;;;;;;6.47;4.93;;;18.30;86.40;;;18.26;38.82;101391.44;4942572;28;98476;-65
2022/05/03 09:58:09;;;;;;;8.87;5.50;;;18.30;83.60;;;18.31;38.22;101384.00;4945680;28;98597;-65
2022/05/03 10:00:39;;;;;;;5.33;3.83;;;18.30;82.00;;;18.27;38.76;101377.97;4943391;28;97694;-65
2022/05/03 10:03:09;;;;;;;6.13;4.27;;;18.30;82.00;;;18.24;38.98;101378.16;4948187;28;97608;-65
2022/05/03 10:05:41;;;;;;;4.17;3.13;;;18.40;81.80;;;18.26;41.11;101376.25;4926124;28;97714;-65
2022/05/03 10:08:11;;;;;;;5.60;4.60;;;18.40;85.90;;;18.34;40.70;101378.47;4947721;28;97514;-65
2022/05/03 10:10:43;;;;;;;9.17;4.70;;;18.40;84.50;;;18.30;38.78;101372.47;4944166;28;97470;-65
2022/05/03 10:13:11;;;;;;;4.50;3.47;;;18.40;82.00;;;18.29;39.22;101375.22;4933803;28;99741;-65
2022/05/03 10:21:32;;;;;;;6.30;4.80;;;18.60;81.60;;;18.44;40.31;101374.34;4945281;28;101615;-65
2022/05/03 10:24:09;;;;;;;7.13;5.90;;;18.60;83.50;;;18.49;40.54;101374.94;4950378;28;98319;-65
2022/05/03 10:27:07;;;;;;;7.37;6.47;;;18.60;84.40;;;18.52;36.66;101374.78;4865437;28;98041;-65
2022/05/03 10:29:37;;;;;;;10.53;6.67;;;18.70;79.50;;;18.50;37.71;101378.47;4853054;28;99786;-66
2022/05/03 10:32:17;;;;;;;9.20;5.50;;;18.60;80.10;;;18.52;38.49;101377.47;4955410;28;96949;-65
2022/05/03 10:35:04;;;;;;;7.90;5.43;;;18.60;81.50;;;18.45;35.54;101370.72;4950414;28;97976;-65
2022/05/03 10:37:29;;;;;;;6.70;6.10;;;18.60;76.50;;;18.47;36.88;101368.81;4954127;28;97221;-68
2022/05/03 10:39:58;;;;;;;8.40;6.03;;;18.60;79.30;;;18.48;35.85;101370.53;4962860;28;97084;-65
2022/05/03 10:42:29;;;;;;;6.17;4.13;;;18.60;76.80;;;18.47;38.48;101374.16;4958013;28;103030;-65
2022/05/03 10:45:10;;;;;;;12.17;7.60;;;18.60;79.30;;;18.57;37.20;101370.03;4950588;28;97241;-65
2022/05/03 10:47:54;;;;;;;7.23;6.63;;;18.70;79.00;;;18.61;37.53;101371.56;4938245;28;98058;-65
2022/05/03 10:50:22;;;;;;;6.80;6.10;;;18.80;79.30;;;18.68;38.84;101362.28;4952807;28;97246;-65
2022/05/03 10:52:54;;;;;;;8.57;7.03;;;18.90;81.80;;;18.75;37.08;101362.78;4948206;28;97036;-65
2022/05/03 10:55:21;;;;;;;8.20;6.20;;;19.00;78.30;;;18.84;38.60;101358.72;4962206;28;97153;-65
2022/05/03 10:58:24;;;;;;;7.10;6.37;;;19.00;80.70;;;18.86;37.59;101359.47;4937774;28;100423;-65
2022/05/03 11:01:07;;;;;;;7.80;6.33;;;19.10;81.20;;;18.76;39.53;101352.94;4949173;28;97427;-65